Time;durP1;ratioP1;P1;durP2;ratioP2;P2;SDS_P1;SDS_P2;PMS_P1;PMS_P2;Temp;Humidity;BMP_temperature;BMP_pressure;BME280_temperature;BME280_humidity;BME280_pressure;Samples;Min_cycle;Max_cycle;Signal;HPM_P1;HPM_P2
2023/10/07 00:02:18;;;;;;;;;;;16.30;99.90;;;;;;5116607;28;19924;-62
2023/10/07 00:04:44;;;;;;;;;;;16.30;99.90;;;;;;5117825;28;19924;-62
2023/10/07 00:07:11;;;;;;;;;;;16.20;99.90;;;;;;5116530;28;19930;-64
2023/10/07 00:09:39;;;;;;;;;;;16.30;99.90;;;;;;5117246;28;19963;-62
2023/10/07 00:12:05;;;;;;;;;;;16.30;99.90;;;;;;5116983;28;19923;-62
2023/10/07 00:14:30;;;;;;;;;;;16.20;99.90;;;;;;5117265;28;19982;-62
2023/10/07 00:16:57;;;;;;;;;;;16.30;99.90;;;;;;5117517;28;19929;-63
2023/10/07 00:19:24;;;;;;;;;;;16.30;99.90;;;;;;5117112;28;19975;-62
2023/10/07 00:21:59;;;;;;;;;;;16.30;99.90;;;;;;5117641;28;19939;-61
2023/10/07 00:24:25;;;;;;;;;;;16.30;99.90;;;;;;5115861;28;20000;-63
2023/10/07 00:26:52;;;;;;;;;;;16.30;99.90;;;;;;5117382;28;19930;-62
2023/10/07 00:29:24;;;;;;;;;;;16.30;99.90;;;;;;5116466;28;19944;-62
2023/10/07 00:31:52;;;;;;;;;;;16.30;99.90;;;;;;5098838;28;19931;-63
2023/10/07 00:34:26;;;;;;;;;;;16.30;99.90;;;;;;5099370;28;19997;-62
2023/10/07 00:36:56;;;;;;;;;;;16.30;99.90;;;;;;5116435;28;19924;-63
2023/10/07 00:39:22;;;;;;;;;;;16.30;99.90;;;;;;5116940;28;19924;-62
2023/10/07 00:41:51;;;;;;;;;;;16.30;99.90;;;;;;5116244;28;20005;-63
2023/10/07 00:44:23;;;;;;;;;;;16.30;99.90;;;;;;5117782;28;19924;-63
2023/10/07 00:47:11;;;;;;;;;;;16.30;99.90;;;;;;5098717;28;19920;-63
2023/10/07 00:49:41;;;;;;;;;;;16.30;99.90;;;;;;5116706;28;19930;-63
2023/10/07 00:52:27;;;;;;;;;;;16.30;99.90;;;;;;5117177;28;19930;-63
2023/10/07 00:55:00;;;;;;;;;;;16.30;99.90;;;;;;5116715;28;20393;-63
2023/10/07 00:57:35;;;;;;;;;;;16.30;99.90;;;;;;5117401;28;19923;-63
2023/10/07 01:02:48;;;;;;;;;;;16.30;99.90;;;;;;5116346;28;19923;-62
2023/10/07 01:05:22;;;;;;;;;;;16.30;99.90;;;;;;5099246;28;19959;-63
2023/10/07 01:07:53;;;;;;;;;;;16.30;99.90;;;;;;5116098;28;19924;-63
2023/10/07 01:10:25;;;;;;;;;;;16.30;99.90;;;;;;5117319;28;19924;-63
2023/10/07 01:12:51;;;;;;;;;;;16.30;99.90;;;;;;5098804;28;19923;-62
2023/10/07 01:17:47;;;;;;;;;;;16.30;99.90;;;;;;5121183;28;20366;-63
2023/10/07 01:20:13;;;;;;;;;;;16.30;99.90;;;;;;5119968;28;19978;-63
2023/10/07 01:22:44;;;;;;;;;;;16.30;99.90;;;;;;5120699;28;19920;-63
2023/10/07 01:25:17;;;;;;;;;;;16.30;99.90;;;;;;5120591;28;19967;-60
2023/10/07 01:27:50;;;;;;;;;;;16.40;99.90;;;;;;5120565;28;19931;-62
2023/10/07 01:30:16;;;;;;;;;;;16.40;99.90;;;;;;5120890;28;19926;-63
2023/10/07 01:32:50;;;;;;;;;;;16.40;99.90;;;;;;5101251;28;19923;-63
2023/10/07 01:35:25;;;;;;;;;;;16.40;99.90;;;;;;5120515;28;19983;-62
2023/10/07 01:37:59;;;;;;;;;;;16.40;99.90;;;;;;5119016;28;20475;-62
2023/10/07 01:40:43;;;;;;;;;;;16.40;99.90;;;;;;5120250;28;19924;-63
2023/10/07 01:43:09;;;;;;;;;;;16.30;99.90;;;;;;5120258;28;19927;-63
2023/10/07 01:45:39;;;;;;;;;;;16.40;99.90;;;;;;5119404;28;19923;-62
2023/10/07 01:48:07;;;;;;;;;;;16.40;99.90;;;;;;5102050;28;20003;-63
2023/10/07 01:50:40;;;;;;;;;;;16.40;99.90;;;;;;5118811;28;19924;-63
2023/10/07 01:53:05;;;;;;;;;;;16.30;99.90;;;;;;5101655;28;20388;-63
2023/10/07 01:55:43;;;;;;;;;;;16.40;99.90;;;;;;5120118;28;19971;-63
2023/10/07 01:58:13;;;;;;;;;;;16.30;99.90;;;;;;5118979;28;19945;-63
2023/10/07 02:00:57;;;;;;;;;;;16.40;99.90;;;;;;5101714;28;19935;-63
2023/10/07 02:03:23;;;;;;;;;;;16.40;99.90;;;;;;5117987;28;19924;-62
2023/10/07 02:05:49;;;;;;;;;;;16.40;99.90;;;;;;5119963;28;19930;-62
2023/10/07 02:08:20;;;;;;;;;;;16.40;99.90;;;;;;5101548;28;19962;-63
2023/10/07 02:10:47;;;;;;;;;;;16.40;99.90;;;;;;5119396;28;19946;-63
2023/10/07 02:13:14;;;;;;;;;;;16.40;99.90;;;;;;5120277;28;19998;-64
2023/10/07 02:15:42;;;;;;;;;;;16.40;99.90;;;;;;5118807;28;19935;-63
2023/10/07 02:18:15;;;;;;;;;;;16.40;99.90;;;;;;5120195;28;19970;-62
2023/10/07 02:23:44;;;;;;;;;;;16.40;99.90;;;;;;5119617;28;19923;-62
2023/10/07 02:28:43;;;;;;;;;;;16.50;99.90;;;;;;5118471;28;19924;-62
2023/10/07 02:31:15;;;;;;;;;;;16.50;99.90;;;;;;5119730;28;19928;-63
2023/10/07 02:33:45;;;;;;;;;;;16.50;99.90;;;;;;5118437;28;19930;-62
2023/10/07 02:36:28;;;;;;;;;;;16.50;99.90;;;;;;5119595;28;19986;-63
2023/10/07 02:39:00;;;;;;;;;;;16.50;99.90;;;;;;5119669;28;19934;-62
2023/10/07 02:41:26;;;;;;;;;;;16.50;99.90;;;;;;5118304;28;20683;-62
2023/10/07 02:43:52;;;;;;;;;;;16.50;99.90;;;;;;5119279;28;19923;-62
2023/10/07 02:46:33;;;;;;;;;;;16.50;99.90;;;;;;5118150;28;19975;-63
2023/10/07 02:49:09;;;;;;;;;;;16.50;99.90;;;;;;5118775;28;19920;-63
2023/10/07 02:51:50;;;;;;;;;;;16.50;99.90;;;;;;5119252;28;20383;-63
2023/10/07 02:54:20;;;;;;;;;;;16.50;99.90;;;;;;5117833;28;19924;-63
2023/10/07 02:59:33;;;;;;;;;;;16.50;99.90;;;;;;5118418;28;20010;-62
2023/10/07 03:04:42;;;;;;;;;;;16.50;99.90;;;;;;5118522;28;19958;-63
2023/10/07 03:07:14;;;;;;;;;;;16.50;99.90;;;;;;5117416;28;20010;-63
2023/10/07 03:09:54;;;;;;;;;;;16.50;99.90;;;;;;5118560;28;19934;-63
2023/10/07 03:12:38;;;;;;;;;;;16.50;99.90;;;;;;5118264;28;19926;-63
2023/10/07 03:15:20;;;;;;;;;;;16.50;99.90;;;;;;5117639;28;19930;-63
2023/10/07 03:17:46;;;;;;;;;;;16.60;99.90;;;;;;5118390;28;19924;-63
2023/10/07 03:23:15;;;;;;;;;;;16.60;99.90;;;;;;5118665;28;19931;-62
2023/10/07 03:28:19;;;;;;;;;;;16.60;99.90;;;;;;5117331;28;19930;-62
2023/10/07 03:30:52;;;;;;;;;;;16.60;99.90;;;;;;5118654;28;19924;-64
2023/10/07 03:33:23;;;;;;;;;;;16.60;99.90;;;;;;5116953;28;19930;-62
2023/10/07 03:38:25;;;;;;;;;;;16.60;99.90;;;;;;5118483;28;19924;-63
2023/10/07 03:40:54;;;;;;;;;;;16.60;99.90;;;;;;5117578;28;19919;-63
2023/10/07 03:43:27;;;;;;;;;;;16.60;99.90;;;;;;5118444;28;19928;-62
2023/10/07 03:45:53;;;;;;;;;;;16.60;99.90;;;;;;5117131;28;19976;-62
2023/10/07 03:48:25;;;;;;;;;;;16.70;99.90;;;;;;5117891;28;20565;-63
2023/10/07 03:50:59;;;;;;;;;;;16.60;99.90;;;;;;5099514;28;19923;-63
2023/10/07 03:53:29;;;;;;;;;;;16.60;99.90;;;;;;5118018;28;19931;-63
2023/10/07 03:55:55;;;;;;;;;;;16.60;99.90;;;;;;5118375;28;19924;-63
2023/10/07 03:58:21;;;;;;;;;;;16.60;99.90;;;;;;5116724;28;19920;-63
2023/10/07 04:00:46;;;;;;;;;;;16.60;99.90;;;;;;5099268;28;19923;-63
2023/10/07 04:03:12;;;;;;;;;;;16.60;99.90;;;;;;5116952;28;20074;-63
2023/10/07 04:05:42;;;;;;;;;;;16.60;99.90;;;;;;5118415;28;19955;-62
2023/10/07 04:08:08;;;;;;;;;;;16.60;99.90;;;;;;5117619;28;20006;-62
2023/10/07 04:10:45;;;;;;;;;;;16.60;99.90;;;;;;5117670;28;19931;-63
2023/10/07 04:13:21;;;;;;;;;;;16.60;99.90;;;;;;5118211;28;19926;-63
2023/10/07 04:15:52;;;;;;;;;;;16.60;99.90;;;;;;5116306;28;19923;-63
2023/10/07 04:18:22;;;;;;;;;;;16.60;99.90;;;;;;5117962;28;19924;-62
2023/10/07 04:20:57;;;;;;;;;;;16.60;99.90;;;;;;5117385;28;19931;-62
2023/10/07 04:23:25;;;;;;;;;;;16.60;99.90;;;;;;5117575;28;19930;-63
2023/10/07 04:25:55;;;;;;;;;;;16.60;99.90;;;;;;5117909;28;19919;-63
2023/10/07 04:28:21;;;;;;;;;;;16.60;99.90;;;;;;5116717;28;20324;-62
2023/10/07 04:30:47;;;;;;;;;;;16.60;99.90;;;;;;5117456;28;19923;-62
2023/10/07 04:33:17;;;;;;;;;;;16.60;99.90;;;;;;5116610;28;19924;-63
2023/10/07 04:35:49;;;;;;;;;;;16.70;99.90;;;;;;5117787;28;20002;-63
2023/10/07 04:43:36;;;;;;;;;;;16.60;99.90;;;;;;5117713;28;19924;-62
2023/10/07 04:46:07;;;;;;;;;;;16.60;99.90;;;;;;5097700;28;19924;-62
2023/10/07 04:48:54;;;;;;;;;;;16.70;99.90;;;;;;5118895;28;20034;-62
2023/10/07 04:51:24;;;;;;;;;;;16.70;99.90;;;;;;5121630;28;20006;-63
2023/10/07 04:53:57;;;;;;;;;;;16.70;99.90;;;;;;5120499;28;19939;-62
2023/10/07 04:56:25;;;;;;;;;;;16.70;99.90;;;;;;5121374;28;19924;-62
2023/10/07 04:58:52;;;;;;;;;;;16.70;99.90;;;;;;5119488;28;19924;-62
2023/10/07 05:01:33;;;;;;;;;;;16.70;99.90;;;;;;5121248;28;19920;-63
2023/10/07 05:04:09;;;;;;;13.45;4.45;;;16.70;99.90;;;;;;5120543;28;19975;-63
2023/10/07 05:06:38;;;;;;;16.77;4.85;;;16.70;99.90;;;;;;5119671;28;20080;-62
2023/10/07 05:09:10;;;;;;;11.25;4.57;;;16.70;99.90;;;;;;5120530;28;20056;-63
2023/10/07 05:11:43;;;;;;;16.20;4.78;;;16.70;99.90;;;;;;5119288;28;20043;-63
2023/10/07 05:14:15;;;;;;;13.70;4.40;;;16.60;99.90;;;;;;5119999;28;20055;-61
2023/10/07 05:16:42;;;;;;;16.40;4.95;;;16.70;99.90;;;;;;5119977;28;20036;-62
2023/10/07 05:19:10;;;;;;;15.70;4.72;;;16.70;99.90;;;;;;5101893;28;20082;-62
2023/10/07 05:21:37;;;;;;;12.90;4.32;;;16.70;99.90;;;;;;5120360;28;20043;-63
2023/10/07 05:24:04;;;;;;;9.30;3.92;;;16.70;99.90;;;;;;5118925;28;20051;-65
2023/10/07 05:26:31;;;;;;;11.38;4.05;;;16.70;99.90;;;;;;5120126;28;20548;-63
2023/10/07 05:29:02;;;;;;;17.13;4.70;;;16.70;99.90;;;;;;5118611;28;20047;-62
2023/10/07 05:31:30;;;;;;;18.13;4.60;;;16.70;99.90;;;;;;5120236;28;20051;-62
2023/10/07 05:33:59;;;;;;;10.23;4.38;;;16.70;99.90;;;;;;5119775;28;20062;-61
2023/10/07 05:36:30;;;;;;;16.42;4.65;;;16.70;99.90;;;;;;5119477;28;20054;-62
2023/10/07 05:38:56;;;;;;;11.52;4.70;;;16.70;99.90;;;;;;5119984;28;20078;-63
2023/10/07 05:41:25;;;;;;;19.50;4.82;;;16.70;99.90;;;;;;5119018;28;20051;-62
2023/10/07 05:43:51;;;;;;;13.77;5.03;;;16.70;99.90;;;;;;5119509;28;20039;-63
2023/10/07 05:46:20;;;;;;;15.77;4.70;;;16.70;99.90;;;;;;5119216;28;20042;-63
2023/10/07 05:48:51;;;;;;;18.15;4.78;;;16.70;99.90;;;;;;5119937;28;20051;-62
2023/10/07 05:51:17;;;;;;;18.13;4.32;;;16.70;99.90;;;;;;5119607;28;20084;-62
2023/10/07 05:53:53;;;;;;;17.35;4.47;;;16.70;99.90;;;;;;5119058;28;20063;-62
2023/10/07 05:56:19;;;;;;;13.65;4.80;;;16.70;99.90;;;;;;5119882;28;20027;-62
2023/10/07 05:58:45;;;;;;;15.60;4.47;;;16.70;99.90;;;;;;5118183;28;20139;-62
2023/10/07 06:01:18;;;;;;;21.85;5.03;;;16.70;99.90;;;;;;5118384;28;20040;-63
2023/10/07 06:03:44;;;;;;;17.75;4.70;;;16.80;99.90;;;;;;5119108;28;20043;-60
2023/10/07 06:06:10;;;;;;;19.85;4.85;;;16.80;99.90;;;;;;5119366;28;20104;-61
2023/10/07 06:08:36;;;;;;;12.95;4.10;;;16.70;99.90;;;;;;5119551;28;20061;-63
2023/10/07 06:11:04;;;;;;;17.85;4.80;;;16.80;99.90;;;;;;5118097;28;20103;-63
2023/10/07 06:13:33;;;;;;;21.23;4.68;;;16.70;99.90;;;;;;5119503;28;20055;-64
2023/10/07 06:15:59;;;;;;;17.65;4.32;;;16.80;99.90;;;;;;5118210;28;20047;-63
2023/10/07 06:18:26;;;;;;;21.20;5.18;;;16.80;99.90;;;;;;5119341;28;20096;-62
2023/10/07 06:20:53;;;;;;;10.90;4.18;;;16.80;99.90;;;;;;5118895;28;20040;-62
2023/10/07 06:23:24;;;;;;;14.20;4.75;;;16.80;99.90;;;;;;5119178;28;20047;-62
2023/10/07 06:25:51;;;;;;;14.50;3.80;;;16.80;99.90;;;;;;5083593;28;20038;-63
2023/10/07 06:31:22;;;;;;;12.50;4.25;;;16.80;99.90;;;;;;5119183;28;20103;-61
2023/10/07 06:34:03;;;;;;;16.33;4.93;;;16.80;99.90;;;;;;5100230;28;20048;-63
2023/10/07 06:36:30;;;;;;;13.68;4.35;;;16.80;99.90;;;;;;5118115;28;20046;-63
2023/10/07 06:39:01;;;;;;;10.10;4.38;;;16.80;99.90;;;;;;5118926;28;20532;-62
2023/10/07 06:41:29;;;;;;;15.15;4.30;;;16.80;99.90;;;;;;5117270;28;20040;-62
2023/10/07 06:44:02;;;;;;;16.95;4.70;;;16.80;99.90;;;;;;5118877;28;20055;-62
2023/10/07 06:46:29;;;;;;;18.42;4.78;;;16.80;99.90;;;;;;5118347;28;20073;-62
2023/10/07 06:48:56;;;;;;;13.57;4.53;;;16.80;99.90;;;;;;5100046;28;20059;-62
2023/10/07 06:51:23;;;;;;;15.63;4.75;;;16.80;99.90;;;;;;5118805;28;20150;-62
2023/10/07 06:53:49;;;;;;;15.15;4.82;;;16.80;99.90;;;;;;5117520;28;20198;-62
2023/10/07 06:56:22;;;;;;;15.13;4.93;;;16.80;99.90;;;;;;5118336;28;20103;-62
2023/10/07 06:58:54;;;;;;;;;;;16.80;99.90;;;;;;5117855;28;20141;-63
2023/10/07 07:01:35;;;;;;;14.90;4.40;;;16.80;99.90;;;;;;5118792;28;19927;-63
2023/10/07 07:04:09;;;;;;;16.33;4.93;;;16.80;99.90;;;;;;5118426;28;20044;-63
2023/10/07 07:06:44;;;;;;;15.27;4.18;;;16.90;99.90;;;;;;5117549;28;20035;-62
2023/10/07 07:11:58;;;;;;;20.38;5.00;;;16.80;99.90;;;;;;5116858;28;20052;-62
2023/10/07 07:14:28;;;;;;;15.65;4.63;;;16.90;99.90;;;;;;5118407;28;20108;-63
2023/10/07 07:17:28;;;;;;;15.60;4.78;;;16.80;99.90;;;;;;5118387;28;20047;-62
2023/10/07 07:19:44;;;;;;;14.45;4.43;;;16.90;99.90;;;;;;5114273;28;20107;-62
2023/10/07 07:22:11;;;;;;;20.33;5.65;;;16.90;99.90;;;;;;5118272;28;20466;-60
2023/10/07 07:24:37;;;;;;;19.80;4.70;;;16.90;99.90;;;;;;5116771;28;20399;-62
2023/10/07 07:27:03;;;;;;;11.98;4.50;;;16.90;99.90;;;;;;5099666;28;20060;-62
2023/10/07 07:29:30;;;;;;;14.02;4.88;;;17.00;99.90;;;;;;5117429;28;20048;-62
2023/10/07 07:31:56;;;;;;;15.25;4.88;;;17.00;99.90;;;;;;5117595;28;20055;-62
2023/10/07 07:34:31;;;;;;;15.07;5.22;;;17.00;99.90;;;;;;5099842;28;20052;-62
2023/10/07 07:37:03;;;;;;;19.50;4.30;;;17.10;99.90;;;;;;5116718;28;20587;-62
2023/10/07 07:39:32;;;;;;;16.43;4.70;;;17.10;99.90;;;;;;5117390;28;20055;-62
2023/10/07 07:42:15;;;;;;;17.58;4.30;;;17.10;99.90;;;;;;5116915;28;20078;-63
2023/10/07 07:44:57;;;;;;;24.33;5.18;;;17.10;99.90;;;;;;5115613;28;20094;-62
2023/10/07 07:47:26;;;;;;;13.65;6.38;;;17.20;99.90;;;;;;5095840;28;20108;-63
2023/10/07 07:49:53;;;;;;;13.52;5.38;;;17.20;99.90;;;;;;5097868;28;20052;-62
2023/10/07 07:52:19;;;;;;;16.50;5.30;;;17.20;99.90;;;;;;5117220;28;20077;-64
2023/10/07 07:54:45;;;;;;;15.93;4.72;;;17.30;99.90;;;;;;5115817;28;20044;-63
2023/10/07 07:57:12;;;;;;;12.63;4.25;;;17.30;99.90;;;;;;5117515;28;20065;-63
2023/10/07 07:59:38;;;;;;;16.15;4.05;;;17.30;99.90;;;;;;5117000;28;20052;-63
2023/10/07 08:02:15;;;;;;;13.65;4.32;;;17.40;99.90;;;;;;5116600;28;20067;-62
2023/10/07 08:04:45;;;;;;;16.25;3.95;;;17.40;99.90;;;;;;5117002;28;20036;-62
2023/10/07 08:09:55;;;;;;;12.10;4.25;;;17.50;99.90;;;;;;5117013;28;20063;-63
2023/10/07 08:12:28;;;;;;;17.08;4.32;;;17.50;99.90;;;;;;5116549;28;20032;-63
2023/10/07 08:15:09;;;;;;;17.63;5.60;;;17.50;99.90;;;;;;5115840;28;20600;-63
2023/10/07 08:17:37;;;;;;;15.57;4.60;;;17.60;99.90;;;;;;5117013;28;20048;-63
2023/10/07 08:20:12;;;;;;;14.90;4.13;;;17.60;99.90;;;;;;5115996;28;20051;-63
2023/10/07 08:22:45;;;;;;;9.45;3.47;;;17.70;99.90;;;;;;5116169;28;20050;-63
2023/10/07 08:25:25;;;;;;;15.10;4.00;;;17.70;99.90;;;;;;5116541;28;20048;-63
2023/10/07 08:27:55;;;;;;;12.98;4.38;;;17.70;99.90;;;;;;5116211;28;20104;-63
2023/10/07 08:30:39;;;;;;;16.55;4.07;;;17.80;99.90;;;;;;5116997;28;20100;-62
2023/10/07 08:33:12;;;;;;;14.18;4.20;;;17.80;99.90;;;;;;5115912;28;20048;-63
2023/10/07 08:35:43;;;;;;;16.40;4.68;;;17.80;99.90;;;;;;5098870;28;20437;-62
2023/10/07 08:38:37;;;;;;;10.65;3.80;;;17.80;99.90;;;;;;5116470;28;20059;-63
2023/10/07 08:41:07;;;;;;;13.73;3.92;;;17.80;99.90;;;;;;5115177;28;20054;-63
2023/10/07 08:43:44;;;;;;;12.40;4.13;;;17.90;99.90;;;;;;5117057;28;20104;-62
2023/10/07 08:46:19;;;;;;;17.33;4.82;;;17.80;99.90;;;;;;5098156;28;20055;-63
2023/10/07 08:48:56;;;;;;;15.15;4.50;;;17.90;99.90;;;;;;5098559;28;20055;-62
2023/10/07 08:51:24;;;;;;;11.25;4.07;;;17.90;99.90;;;;;;5116781;28;20042;-63
2023/10/07 08:54:09;;;;;;;22.45;4.65;;;18.00;99.90;;;;;;5115977;28;20047;-63
2023/10/07 08:56:37;;;;;;;12.82;3.97;;;17.90;99.90;;;;;;5116678;28;20687;-63
2023/10/07 08:59:07;;;;;;;16.67;4.80;;;18.00;99.90;;;;;;5115858;28;20528;-63
2023/10/07 09:01:35;;;;;;;14.07;4.18;;;18.00;99.90;;;;;;5116767;28;20134;-62
2023/10/07 09:04:06;;;;;;;12.57;3.40;;;18.00;99.90;;;;;;5116758;28;20092;-63
2023/10/07 09:06:33;;;;;;;14.43;3.90;;;18.00;99.90;;;;;;5115386;28;20047;-63
2023/10/07 09:09:08;;;;;;;13.50;3.53;;;18.00;99.90;;;;;;5098393;28;20556;-63
2023/10/07 09:11:37;;;;;;;18.60;4.88;;;18.00;99.90;;;;;;5116007;28;20043;-62
2023/10/07 09:14:18;;;;;;;18.38;4.30;;;18.00;99.90;;;;;;5116739;28;20051;-63
2023/10/07 09:16:46;;;;;;;11.13;3.45;;;18.10;99.90;;;;;;5116499;28;20058;-63
2023/10/07 09:19:19;;;;;;;15.68;3.60;;;18.10;99.90;;;;;;5115820;28;20067;-63
2023/10/07 09:21:51;;;;;;;11.63;3.83;;;18.20;99.90;;;;;;5116068;28;20050;-63
2023/10/07 09:24:23;;;;;;;10.67;3.27;;;18.20;99.90;;;;;;5115648;28;20112;-63
2023/10/07 09:26:59;;;;;;;14.52;3.90;;;18.30;99.90;;;;;;5116983;28;20839;-63
2023/10/07 09:29:26;;;;;;;11.00;3.78;;;18.30;99.90;;;;;;5116290;28;20056;-63
2023/10/07 09:32:04;;;;;;;14.27;3.60;;;18.40;99.90;;;;;;5116308;28;20827;-63
2023/10/07 09:34:32;;;;;;;10.25;3.58;;;18.40;99.90;;;;;;5117710;28;20043;-63
2023/10/07 09:36:58;;;;;;;9.10;3.50;;;18.50;99.90;;;;;;5119506;28;20154;-62
2023/10/07 09:39:34;;;;;;;12.48;3.40;;;18.50;99.90;;;;;;5120519;28;20941;-63
2023/10/07 09:42:04;;;;;;;12.77;3.22;;;18.60;99.90;;;;;;5119779;28;20054;-63
2023/10/07 09:44:37;;;;;;;16.73;3.90;;;18.60;99.90;;;;;;5120207;28;20054;-64
2023/10/07 09:47:10;;;;;;;13.88;3.10;;;18.70;99.90;;;;;;5120325;28;20058;-63
2023/10/07 09:49:36;;;;;;;;;;;18.70;99.90;;;;;;5118931;28;20081;-62
2023/10/07 09:52:17;;;;;;;14.32;3.40;;;18.80;99.90;;;;;;5120012;28;19959;-63
2023/10/07 09:54:55;;;;;;;10.40;3.92;;;18.80;99.90;;;;;;5118893;28;20059;-63
2023/10/07 09:57:21;;;;;;;15.43;3.30;;;18.80;99.90;;;;;;5119974;28;20454;-62
2023/10/07 10:03:33;;;;;;;10.38;3.10;;;19.00;99.90;;;;;;5118577;28;20047;-62
2023/10/07 10:06:39;;;;;;;13.23;4.20;;;19.00;99.90;;;;;;5068421;28;20436;-62
2023/10/07 10:09:09;;;;;;;12.27;4.20;;;19.10;99.90;;;;;;5118320;28;20511;-63
2023/10/07 10:16:50;;;;;;;18.50;4.60;;;19.40;99.90;;;;;;5117755;28;20400;-63
2023/10/07 10:19:25;;;;;;;15.45;4.30;;;19.40;99.90;;;;;;5116894;28;20420;-63
2023/10/07 10:21:55;;;;;;;12.80;4.05;;;19.40;99.90;;;;;;5118104;28;21233;-63
2023/10/07 10:24:30;;;;;;;14.70;4.00;;;19.50;99.90;;;;;;5116868;28;20392;-63
2023/10/07 10:27:08;;;;;;;16.08;4.20;;;19.50;99.90;;;;;;5118229;28;20404;-62
2023/10/07 10:29:52;;;;;;;16.60;4.50;;;19.60;99.90;;;;;;5117685;28;20448;-63
2023/10/07 10:32:35;;;;;;;10.85;3.90;;;19.60;99.90;;;;;;5116263;28;20822;-63
2023/10/07 10:35:11;;;;;;;15.25;4.28;;;19.60;99.90;;;;;;5117971;28;20842;-62
2023/10/07 10:37:37;;;;;;;11.50;4.22;;;19.70;99.90;;;;;;5116994;28;20412;-63
2023/10/07 10:40:21;;;;;;;14.93;4.13;;;19.70;99.90;;;;;;5118013;28;20416;-63
2023/10/07 10:42:48;;;;;;;19.02;4.50;;;19.70;99.90;;;;;;5117747;28;20438;-64
2023/10/07 10:45:26;;;;;;;16.53;4.50;;;19.70;99.90;;;;;;5115405;28;20441;-62
2023/10/07 10:47:54;;;;;;;13.20;4.05;;;19.70;99.90;;;;;;5117497;28;20412;-63
2023/10/07 10:50:22;;;;;;;;;;;19.60;99.90;;;;;;5117909;28;20511;-62
2023/10/07 10:52:48;;;;;;;11.95;4.28;;;19.50;99.90;;;;;;5100355;28;19930;-63
2023/10/07 10:55:19;;;;;;;13.65;3.25;;;19.50;99.90;;;;;;5118232;28;20124;-64
2023/10/07 10:57:45;;;;;;;15.75;4.20;;;19.50;99.90;;;;;;5115365;28;20134;-64
2023/10/07 11:00:22;;;;;;;11.57;3.40;;;19.50;99.90;;;;;;5118612;28;20514;-63
2023/10/07 11:02:54;;;;;;;17.67;4.80;;;19.50;99.90;;;;;;5117214;28;20108;-63
2023/10/07 11:05:21;;;;;;;12.93;4.25;;;19.50;99.90;;;;;;5118975;28;20044;-63
2023/10/07 11:07:49;;;;;;;13.88;4.00;;;19.50;99.90;;;;;;5099572;28;20050;-63
2023/10/07 11:10:23;;;;;;;8.50;3.72;;;19.50;99.90;;;;;;5118162;28;20099;-64
2023/10/07 11:12:52;;;;;;;15.60;3.65;;;19.50;99.90;;;;;;5118702;28;20097;-64
2023/10/07 11:15:29;;;;;;;17.15;3.78;;;19.40;99.90;;;;;;5116942;28;20099;-64
2023/10/07 11:17:58;;;;;;;12.45;3.75;;;19.50;99.90;;;;;;5118534;28;20047;-64
2023/10/07 11:20:24;;;;;;;11.73;3.72;;;19.40;99.90;;;;;;5117390;28;20087;-65
2023/10/07 11:22:53;;;;;;;14.68;3.63;;;19.50;99.90;;;;;;5118574;28;20043;-64
2023/10/07 11:25:22;;;;;;;17.58;4.40;;;19.40;99.90;;;;;;5118391;28;20043;-65
2023/10/07 11:27:49;;;;;;;13.95;3.58;;;19.40;99.90;;;;;;5099039;28;20047;-68
2023/10/07 11:30:15;;;;;;;11.27;3.45;;;19.40;99.90;;;;;;5118060;28;20052;-66
2023/10/07 11:32:43;;;;;;;15.88;4.10;;;19.50;99.90;;;;;;5117157;28;20054;-65
2023/10/07 11:35:19;;;;;;;16.08;4.13;;;19.50;99.90;;;;;;5099809;28;20051;-64
2023/10/07 11:37:58;;;;;;;15.50;3.90;;;19.60;99.90;;;;;;5117490;28;20540;-64
2023/10/07 11:40:25;;;;;;;12.05;3.92;;;19.60;99.90;;;;;;5099059;28;20073;-65
2023/10/07 11:42:52;;;;;;;11.10;3.85;;;19.60;99.90;;;;;;5117932;28;20084;-64
2023/10/07 11:45:22;;;;;;;11.75;4.05;;;19.70;99.90;;;;;;5115953;28;20043;-63
2023/10/07 11:47:48;;;;;;;16.38;3.85;;;19.60;99.90;;;;;;5117207;28;20047;-63
2023/10/07 11:50:16;;;;;;;10.90;3.67;;;19.70;99.90;;;;;;5116217;28;20088;-64
2023/10/07 11:52:42;;;;;;;14.70;3.92;;;19.70;99.90;;;;;;5117215;28;20529;-63
2023/10/07 11:55:09;;;;;;;8.10;3.22;;;19.70;99.90;;;;;;5116691;28;20099;-63
2023/10/07 11:57:38;;;;;;;14.23;3.80;;;19.80;99.90;;;;;;5116655;28;20044;-64
2023/10/07 12:00:09;;;;;;;13.15;4.35;;;19.70;99.90;;;;;;5116424;28;20134;-63
2023/10/07 12:02:35;;;;;;;14.02;3.97;;;19.80;99.90;;;;;;5115951;28;20048;-64
2023/10/07 12:05:04;;;;;;;13.50;3.50;;;19.80;99.90;;;;;;5098571;28;20076;-64
2023/10/07 12:07:30;;;;;;;12.75;3.60;;;19.50;99.90;;;;;;5115869;28;20085;-63
2023/10/07 12:09:56;;;;;;;13.02;3.97;;;19.50;99.90;;;;;;5116809;28;20394;-64
2023/10/07 12:12:22;;;;;;;12.90;4.15;;;19.60;99.90;;;;;;5098148;28;20060;-63
2023/10/07 12:14:48;;;;;;;13.02;4.03;;;19.70;99.90;;;;;;5115359;28;20051;-63
2023/10/07 12:17:16;;;;;;;17.33;3.92;;;19.80;99.90;;;;;;5117028;28;20083;-62
2023/10/07 12:19:43;;;;;;;12.07;3.97;;;19.80;99.90;;;;;;5115902;28;20436;-64
2023/10/07 12:22:09;;;;;;;13.20;3.70;;;19.80;99.90;;;;;;5116772;28;20115;-62
2023/10/07 12:24:35;;;;;;;18.30;4.00;;;19.80;99.90;;;;;;5115986;28;20350;-61
2023/10/07 12:27:01;;;;;;;10.50;3.45;;;19.90;99.90;;;;;;5116697;28;20155;-63
2023/10/07 12:29:30;;;;;;;12.48;3.78;;;19.80;99.90;;;;;;5116029;28;20063;-64
2023/10/07 12:31:57;;;;;;;13.20;4.00;;;19.80;99.90;;;;;;5097776;28;20085;-62
2023/10/07 12:34:23;;;;;;;13.15;4.05;;;19.90;99.90;;;;;;5116486;28;20104;-62
2023/10/07 12:36:52;;;;;;;9.88;3.20;;;19.80;99.90;;;;;;5115377;28;20050;-63
2023/10/07 12:39:21;;;;;;;15.32;3.45;;;19.90;99.90;;;;;;5116899;28;20065;-62
2023/10/07 12:41:47;;;;;;;12.95;4.38;;;19.80;99.90;;;;;;5097225;28;20059;-62
2023/10/07 12:44:13;;;;;;;17.83;4.38;;;19.90;99.90;;;;;;5116235;28;20043;-62
2023/10/07 12:46:40;;;;;;;15.82;3.90;;;20.00;99.90;;;;;;5116329;28;20043;-62
2023/10/07 12:49:13;;;;;;;15.10;4.55;;;20.00;99.90;;;;;;5115895;28;20048;-63
2023/10/07 12:51:43;;;;;;;9.98;3.47;;;20.10;99.90;;;;;;5116534;28;20039;-63
2023/10/07 12:54:10;;;;;;;13.88;4.28;;;20.10;99.90;;;;;;5115151;28;20051;-62
2023/10/07 12:56:42;;;;;;;8.98;3.78;;;20.10;99.90;;;;;;5116351;28;20047;-62
2023/10/07 12:59:23;;;;;;;10.60;3.97;;;20.00;99.90;;;;;;5115351;28;20191;-62
2023/10/07 13:01:56;;;;;;;10.77;4.25;;;20.00;99.90;;;;;;5116169;28;20134;-63
2023/10/07 13:04:27;;;;;;;13.27;3.83;;;20.00;99.90;;;;;;5117065;28;20040;-63
2023/10/07 13:07:03;;;;;;;9.40;4.07;;;20.00;99.90;;;;;;5115650;28;20052;-63
2023/10/07 13:09:33;;;;;;;10.95;3.92;;;20.00;99.90;;;;;;5118081;28;20055;-63
2023/10/07 13:11:59;;;;;;;11.65;3.63;;;20.10;99.90;;;;;;5119556;28;20139;-61
2023/10/07 13:14:29;;;;;;;14.88;4.00;;;20.10;99.90;;;;;;5120155;28;20056;-62
2023/10/07 13:16:58;;;;;;;14.48;4.03;;;20.10;99.90;;;;;;5120300;28;20543;-63
2023/10/07 13:19:35;;;;;;;12.30;3.83;;;20.10;99.90;;;;;;5119139;28;20050;-62
2023/10/07 13:22:05;;;;;;;12.60;4.05;;;20.00;99.90;;;;;;5101971;28;20075;-62
2023/10/07 13:24:34;;;;;;;18.92;4.75;;;20.00;99.90;;;;;;5119094;28;20091;-63
2023/10/07 13:27:04;;;;;;;11.73;3.90;;;20.00;99.90;;;;;;5119833;28;20055;-62
2023/10/07 13:29:34;;;;;;;16.08;4.25;;;20.00;99.90;;;;;;5120077;28;20053;-63
2023/10/07 13:32:03;;;;;;;13.52;4.28;;;20.00;99.90;;;;;;5119373;28;20044;-63
2023/10/07 13:34:30;;;;;;;15.00;3.92;;;20.00;99.90;;;;;;5120088;28;20562;-63
2023/10/07 13:36:56;;;;;;;14.65;4.10;;;20.10;99.90;;;;;;5118917;28;20047;-63
2023/10/07 13:39:24;;;;;;;10.43;4.32;;;20.00;99.90;;;;;;5119918;28;20039;-63
2023/10/07 13:41:52;;;;;;;11.85;3.67;;;20.00;99.90;;;;;;5118565;28;20055;-63
2023/10/07 13:44:19;;;;;;;16.80;4.88;;;19.90;99.90;;;;;;5119721;28;20051;-63
2023/10/07 13:46:45;;;;;;;13.25;4.03;;;19.90;99.90;;;;;;5119887;28;20067;-63
2023/10/07 13:49:13;;;;;;;19.88;4.55;;;19.90;99.90;;;;;;5083277;28;20055;-63
2023/10/07 13:51:43;;;;;;;13.30;3.75;;;19.80;99.90;;;;;;5119701;28;20046;-63
2023/10/07 13:54:23;;;;;;;15.77;4.53;;;19.80;99.90;;;;;;5100137;28;20054;-63
2023/10/07 13:56:56;;;;;;;17.73;3.80;;;19.80;99.90;;;;;;5101114;28;20543;-65
2023/10/07 13:59:22;;;;;;;13.85;4.32;;;19.80;99.90;;;;;;5119270;28;20056;-63
2023/10/07 14:01:51;;;;;;;14.93;4.35;;;19.80;99.90;;;;;;5100626;28;20052;-63
2023/10/07 14:04:21;;;;;;;11.20;3.45;;;19.80;99.90;;;;;;5119622;28;20035;-62
2023/10/07 14:06:47;;;;;;;9.77;3.60;;;19.70;99.90;;;;;;5118236;28;20040;-62
2023/10/07 14:09:22;;;;;;;11.10;3.65;;;19.70;99.90;;;;;;5119122;28;20489;-63
2023/10/07 14:11:52;;;;;;;14.57;4.40;;;19.60;99.90;;;;;;5118056;28;20095;-63
2023/10/07 14:14:18;;;;;;;14.90;4.38;;;19.60;99.90;;;;;;5100579;28;20094;-66
2023/10/07 14:16:44;;;;;;;11.35;3.80;;;19.60;99.90;;;;;;5119114;28;20116;-62